Time;durP1;ratioP1;P1;durP2;ratioP2;P2;SDS_P1;SDS_P2;PMS_P1;PMS_P2;Temp;Humidity;BMP_temperature;BMP_pressure;BME280_temperature;BME280_humidity;BME280_pressure;Samples;Min_cycle;Max_cycle;Signal;HPM_P1;HPM_P2
2022/05/19 00:01:54;;;;;;;2.42;1.90;;;16.90;87.40;;;;;;4134913;28;20065;-75
2022/05/19 00:03:56;;;;;;;1.80;1.70;;;16.90;87.50;;;;;;4144426;28;20062;-76
2022/05/19 00:06:00;;;;;;;3.30;1.67;;;16.90;87.10;;;;;;4147838;28;20101;-76
2022/05/19 00:08:02;;;;;;;2.67;2.47;;;16.80;86.70;;;;;;4135940;28;20933;-75
2022/05/19 00:10:04;;;;;;;2.20;2.00;;;16.80;87.30;;;;;;4142220;28;20094;-76
2022/05/19 00:12:15;;;;;;;1.83;1.73;;;16.80;86.80;;;;;;4137107;28;20078;-76
2022/05/19 00:14:17;;;;;;;2.53;1.92;;;16.80;87.30;;;;;;4137343;28;20901;-76
2022/05/19 00:16:18;;;;;;;2.88;1.92;;;16.80;87.60;;;;;;4138266;28;20047;-76
2022/05/19 00:18:20;;;;;;;2.17;2.00;;;16.80;87.60;;;;;;4137723;28;20094;-76
2022/05/19 00:20:22;;;;;;;4.28;2.00;;;16.80;87.90;;;;;;4141993;28;20181;-76
2022/05/19 00:22:24;;;;;;;1.85;1.75;;;16.80;87.90;;;;;;4137330;28;20155;-76
2022/05/19 00:24:26;;;;;;;3.47;2.03;;;16.80;87.50;;;;;;4139604;28;20051;-76
2022/05/19 00:26:27;;;;;;;2.05;1.92;;;16.70;87.50;;;;;;4142214;28;20054;-76
2022/05/19 00:28:29;;;;;;;3.45;2.13;;;16.70;87.70;;;;;;4141527;28;20665;-76
2022/05/19 00:30:32;;;;;;;1.60;1.50;;;16.70;88.30;;;;;;4142250;28;20058;-76
2022/05/19 00:32:34;;;;;;;2.10;2.00;;;16.60;88.40;;;;;;4141059;28;20058;-76
2022/05/19 00:34:35;;;;;;;1.90;1.80;;;16.50;89.20;;;;;;4142512;28;20094;-76
2022/05/19 00:36:37;;;;;;;2.25;2.05;;;16.50;89.60;;;;;;4140795;28;20059;-76
2022/05/19 00:38:40;;;;;;;6.68;2.60;;;16.50;89.60;;;;;;4142157;28;20661;-76
2022/05/19 00:40:48;;;;;;;2.33;2.13;;;16.50;89.00;;;;;;4142969;28;20070;-76
2022/05/19 00:42:51;;;;;;;2.20;1.90;;;16.40;89.10;;;;;;4141616;28;20797;-76
2022/05/19 00:44:53;;;;;;;3.53;1.75;;;16.40;89.20;;;;;;4143636;28;20058;-77
2022/05/19 00:46:57;;;;;;;2.42;1.98;;;16.40;89.90;;;;;;4141295;28;20915;-76
2022/05/19 00:49:05;;;;;;;2.53;2.33;;;16.30;89.60;;;;;;4142485;28;20066;-75
2022/05/19 00:51:08;;;;;;;3.40;2.20;;;16.30;89.90;;;;;;4138999;28;20069;-76
2022/05/19 00:53:30;;;;;;;4.82;2.13;;;16.30;89.90;;;;;;4141987;28;20069;-77
2022/05/19 00:55:39;;;;;;;1.58;1.48;;;16.30;90.00;;;;;;4141015;28;20059;-76
2022/05/19 00:57:46;;;;;;;4.32;2.42;;;16.20;89.40;;;;;;4138775;28;20047;-76
2022/05/19 00:59:57;;;;;;;4.18;2.10;;;16.30;89.90;;;;;;4148172;28;20116;-76
2022/05/19 01:01:58;;;;;;;3.72;2.60;;;16.20;90.10;;;;;;4161534;28;20066;-77
2022/05/19 01:04:23;;;;;;;1.83;1.73;;;16.20;90.10;;;;;;4139620;28;20081;-77
2022/05/19 01:06:29;;;;;;;2.78;2.58;;;16.20;89.00;;;;;;4130625;28;20153;-77
2022/05/19 01:08:54;;;;;;;4.10;2.65;;;16.10;89.80;;;;;;4136852;28;20059;-77
2022/05/19 01:10:57;;;;;;;3.25;1.85;;;16.10;89.70;;;;;;4135943;28;20070;-77
2022/05/19 01:12:59;;;;;;;1.63;1.52;;;16.00;90.30;;;;;;4147263;28;20074;-77
2022/05/19 01:15:02;;;;;;;4.88;2.63;;;16.00;90.00;;;;;;4134207;28;20253;-77
2022/05/19 01:17:06;;;;;;;4.93;2.13;;;16.00;90.00;;;;;;4136097;28;20062;-77
2022/05/19 01:19:23;;;;;;;2.58;2.28;;;15.90;90.50;;;;;;4140815;28;20152;-77
2022/05/19 01:21:28;;;;;;;2.33;2.17;;;15.90;90.20;;;;;;4135906;28;20121;-77
2022/05/19 01:23:59;;;;;;;2.25;2.05;;;15.90;90.60;;;;;;4138329;28;20059;-77
2022/05/19 01:26:04;;;;;;;7.18;2.03;;;15.90;90.20;;;;;;4140607;28;20822;-77
2022/05/19 01:28:06;;;;;;;2.80;2.55;;;15.90;90.00;;;;;;4139070;28;20073;-77
2022/05/19 01:30:10;;;;;;;1.77;1.67;;;15.80;90.20;;;;;;4136619;28;20038;-77
2022/05/19 01:32:24;;;;;;;2.08;1.63;;;15.80;90.30;;;;;;4140424;28;20069;-77
2022/05/19 01:34:31;;;;;;;1.92;1.80;;;15.80;90.20;;;;;;4141330;28;20571;-77
2022/05/19 01:36:33;;;;;;;1.95;1.58;;;15.80;90.10;;;;;;4136378;28;20059;-77
2022/05/19 01:38:35;;;;;;;2.08;1.85;;;15.70;90.10;;;;;;4138588;28;20058;-77
2022/05/19 01:40:56;;;;;;;2.30;2.08;;;15.60;90.30;;;;;;4137446;28;20061;-77
2022/05/19 01:43:20;;;;;;;5.72;2.33;;;15.60;90.40;;;;;;4143390;28;20064;-77
2022/05/19 01:45:39;;;;;;;2.13;1.35;;;15.60;90.30;;;;;;4138545;28;20101;-77
2022/05/19 01:47:50;;;;;;;3.75;1.95;;;15.60;90.00;;;;;;4138800;28;20065;-77
2022/05/19 01:50:09;;;;;;;2.60;2.22;;;15.50;90.30;;;;;;4142213;28;20059;-78
2022/05/19 01:52:35;;;;;;;4.50;2.38;;;15.30;90.60;;;;;;4141476;28;20932;-77
2022/05/19 01:54:51;;;;;;;3.65;1.90;;;15.30;91.20;;;;;;4156895;28;20058;-77
2022/05/19 01:57:00;;;;;;;2.70;2.40;;;15.30;91.30;;;;;;4141036;28;20775;-77
2022/05/19 01:59:18;;;;;;;5.60;2.40;;;15.30;91.50;;;;;;4141022;28;20058;-77
2022/05/19 02:01:24;;;;;;;2.45;1.98;;;15.30;91.50;;;;;;4141959;28;20866;-77
2022/05/19 02:03:52;;;;;;;2.28;2.15;;;15.40;91.10;;;;;;4140490;28;20196;-77
2022/05/19 02:06:18;;;;;;;4.68;2.65;;;15.40;91.20;;;;;;4143714;28;20100;-77
2022/05/19 02:08:26;;;;;;;2.70;2.50;;;15.40;91.50;;;;;;4143483;28;20090;-77
2022/05/19 02:10:32;;;;;;;1.65;1.55;;;15.30;91.40;;;;;;4141406;28;20058;-77
2022/05/19 02:12:34;;;;;;;2.55;2.35;;;15.30;91.10;;;;;;4141459;28;20043;-77
2022/05/19 02:14:54;;;;;;;5.70;2.75;;;15.30;91.20;;;;;;4139623;28;20059;-77
2022/05/19 02:16:57;;;;;;;4.25;2.00;;;15.20;91.50;;;;;;4141428;28;20794;-77
2022/05/19 02:18:59;;;;;;;1.58;1.48;;;15.10;91.60;;;;;;4137398;28;20157;-78
2022/05/19 02:21:03;;;;;;;2.90;1.83;;;15.00;91.80;;;;;;4136870;28;20058;-77
2022/05/19 02:23:05;;;;;;;2.63;2.42;;;14.90;91.90;;;;;;4142978;28;20113;-77
2022/05/19 02:25:33;;;;;;;4.65;3.10;;;14.90;92.20;;;;;;4140894;28;20065;-77
2022/05/19 02:27:44;;;;;;;3.95;3.13;;;14.90;92.60;;;;;;4143837;28;20094;-77
2022/05/19 02:29:45;;;;;;;4.18;3.83;;;14.90;92.50;;;;;;4139353;28;20166;-77
2022/05/19 02:31:48;;;;;;;3.58;3.28;;;15.00;92.50;;;;;;4137396;28;20105;-77
2022/05/19 02:33:50;;;;;;;5.35;3.80;;;15.00;92.60;;;;;;4137132;28;20062;-77
2022/05/19 02:35:52;;;;;;;3.45;3.15;;;15.00;92.90;;;;;;4143696;28;20781;-77
2022/05/19 02:37:54;;;;;;;4.55;3.45;;;14.90;92.70;;;;;;4146020;28;20043;-77
2022/05/19 02:39:56;;;;;;;3.25;2.25;;;14.90;92.80;;;;;;4139077;28;20600;-77
2022/05/19 02:41:58;;;;;;;4.55;2.45;;;14.90;92.40;;;;;;4142639;28;20069;-77
2022/05/19 02:44:00;;;;;;;2.45;1.80;;;14.90;92.30;;;;;;4160981;28;20053;-76
2022/05/19 02:46:02;;;;;;;4.88;2.97;;;14.80;92.50;;;;;;4148035;28;20165;-77
2022/05/19 02:48:06;;;;;;;4.20;2.00;;;14.80;92.60;;;;;;4145096;28;20081;-77
2022/05/19 02:50:09;;;;;;;1.80;1.65;;;14.70;92.60;;;;;;4148807;28;20136;-76
2022/05/19 02:52:16;;;;;;;3.22;2.63;;;14.60;92.70;;;;;;4147201;28;20089;-77
2022/05/19 02:54:21;;;;;;;2.60;2.40;;;14.50;93.20;;;;;;4141111;28;20059;-77
2022/05/19 02:56:22;;;;;;;2.08;1.98;;;14.50;93.40;;;;;;4141735;28;20134;-77
2022/05/19 02:58:24;;;;;;;3.50;2.20;;;14.40;93.50;;;;;;4141222;28;20069;-78
2022/05/19 03:00:26;;;;;;;3.85;2.47;;;14.40;93.90;;;;;;4143439;28;20897;-77
2022/05/19 03:02:28;;;;;;;2.97;2.20;;;14.40;93.80;;;;;;4144455;28;20816;-77
2022/05/19 03:04:30;;;;;;;9.23;2.30;;;14.40;93.70;;;;;;4141768;28;20098;-77
2022/05/19 03:06:31;;;;;;;2.05;1.80;;;14.40;93.60;;;;;;4140905;28;20052;-76
2022/05/19 03:08:33;;;;;;;3.08;2.63;;;14.40;93.90;;;;;;4143737;28;20055;-77
2022/05/19 03:10:37;;;;;;;2.47;2.28;;;14.30;94.20;;;;;;4145163;28;20165;-77
2022/05/19 03:12:39;;;;;;;5.97;2.35;;;14.30;94.50;;;;;;4140217;28;20177;-77
2022/05/19 03:14:41;;;;;;;4.15;2.28;;;14.40;94.70;;;;;;4143117;28;20069;-77
2022/05/19 03:16:43;;;;;;;4.05;2.83;;;14.40;94.30;;;;;;4141897;28;20835;-77
2022/05/19 03:18:44;;;;;;;2.10;1.90;;;14.50;94.20;;;;;;4144926;28;20058;-76
2022/05/19 03:20:46;;;;;;;2.65;1.80;;;14.50;94.20;;;;;;4140582;28;20058;-76
2022/05/19 03:22:48;;;;;;;1.73;1.63;;;14.50;93.30;;;;;;4141745;28;20065;-76
2022/05/19 03:24:50;;;;;;;1.73;1.63;;;14.50;93.50;;;;;;4141239;28;20826;-76
2022/05/19 03:26:52;;;;;;;4.03;1.92;;;14.50;93.50;;;;;;4146464;28;20080;-76
2022/05/19 03:28:53;;;;;;;2.42;2.03;;;14.50;93.40;;;;;;4144171;28;21332;-77
2022/05/19 03:30:55;;;;;;;2.10;2.00;;;14.40;93.10;;;;;;4138166;28;20177;-77
2022/05/19 03:32:57;;;;;;;6.57;2.30;;;14.40;93.10;;;;;;4142667;28;20054;-76
2022/05/19 03:34:59;;;;;;;2.55;1.63;;;14.20;93.10;;;;;;4144357;28;20055;-77
2022/05/19 03:37:04;;;;;;;2.88;1.88;;;14.20;93.50;;;;;;4141112;28;20065;-77
2022/05/19 03:39:06;;;;;;;2.50;2.30;;;14.10;93.80;;;;;;4140145;28;20066;-77
2022/05/19 03:41:07;;;;;;;2.10;1.90;;;14.00;94.50;;;;;;4138764;28;20058;-78
2022/05/19 03:43:09;;;;;;;7.65;2.28;;;14.00;94.80;;;;;;4138712;28;20075;-77
2022/05/19 03:45:13;;;;;;;3.17;1.90;;;13.90;94.80;;;;;;4134773;28;20149;-77
2022/05/19 03:47:15;;;;;;;4.05;2.72;;;13.90;95.00;;;;;;4139649;28;20055;-77
2022/05/19 03:49:17;;;;;;;1.92;1.70;;;13.90;95.20;;;;;;4144752;28;20796;-76
2022/05/19 03:51:24;;;;;;;3.15;2.10;;;13.90;95.10;;;;;;4138851;28;20059;-77
2022/05/19 03:53:26;;;;;;;2.22;2.13;;;13.90;95.60;;;;;;4144791;28;20062;-77
2022/05/19 03:55:28;;;;;;;1.95;1.85;;;14.00;95.90;;;;;;4146268;28;20169;-77
2022/05/19 03:57:29;;;;;;;2.22;2.03;;;14.10;95.80;;;;;;4144811;28;20068;-77
2022/05/19 03:59:31;;;;;;;2.55;2.00;;;14.10;95.50;;;;;;4145938;28;20062;-77
2022/05/19 04:01:33;;;;;;;2.15;1.95;;;14.20;95.40;;;;;;4147825;28;20395;-77
2022/05/19 04:03:36;;;;;;;4.72;1.95;;;14.30;94.50;;;;;;4146528;28;20153;-77
2022/05/19 04:05:37;;;;;;;4.53;2.50;;;14.30;94.40;;;;;;4147198;28;20813;-77
2022/05/19 04:07:43;;;;;;;2.40;2.20;;;14.30;94.50;;;;;;4146471;28;20058;-76
2022/05/19 04:09:45;;;;;;;2.97;1.90;;;14.30;94.40;;;;;;4148328;28;20769;-78
2022/05/19 04:11:46;;;;;;;2.45;1.70;;;14.30;94.00;;;;;;4145028;28;20069;-77
2022/05/19 04:13:48;;;;;;;1.83;1.60;;;14.20;94.20;;;;;;4147527;28;20877;-78
2022/05/19 04:15:50;;;;;;;2.38;2.10;;;14.20;94.70;;;;;;4144846;28;20058;-76
2022/05/19 04:17:52;;;;;;;2.20;2.00;;;14.20;95.00;;;;;;4147639;28;20838;-77
2022/05/19 04:19:54;;;;;;;4.95;1.98;;;14.20;95.50;;;;;;4145053;28;20600;-77
2022/05/19 04:21:56;;;;;;;2.28;2.08;;;14.30;95.70;;;;;;4144829;28;20062;-76
2022/05/19 04:23:58;;;;;;;2.67;2.03;;;14.40;95.90;;;;;;4140271;28;20178;-76
2022/05/19 04:26:00;;;;;;;1.70;1.60;;;14.50;95.60;;;;;;4138984;28;20062;-76
2022/05/19 04:28:02;;;;;;;3.53;1.75;;;14.50;94.30;;;;;;4142510;28;20054;-76
2022/05/19 04:30:05;;;;;;;2.08;1.88;;;14.50;94.10;;;;;;4139759;28;20059;-76
2022/05/19 04:32:16;;;;;;;8.88;2.17;;;14.60;94.00;;;;;;4157238;28;20057;-77
2022/05/19 04:34:17;;;;;;;4.07;2.65;;;14.70;94.00;;;;;;4148115;28;20069;-77
2022/05/19 04:36:19;;;;;;;4.00;2.55;;;14.70;94.20;;;;;;4143862;28;20062;-77
2022/05/19 04:38:21;;;;;;;4.80;2.55;;;14.80;94.20;;;;;;4140118;28;20055;-77
2022/05/19 04:40:23;;;;;;;3.03;2.72;;;14.80;94.00;;;;;;4144439;28;20092;-76
2022/05/19 04:42:25;;;;;;;4.30;2.92;;;14.90;94.40;;;;;;4139357;28;20058;-77
2022/05/19 04:44:27;;;;;;;4.97;2.97;;;15.00;94.20;;;;;;4139531;28;20055;-77
2022/05/19 04:46:28;;;;;;;2.63;2.35;;;15.00;94.20;;;;;;4137254;28;20058;-77
2022/05/19 04:48:30;;;;;;;3.95;2.70;;;15.10;94.20;;;;;;4138717;28;20129;-77
2022/05/19 04:50:32;;;;;;;5.22;2.60;;;15.20;93.90;;;;;;4140357;28;20062;-76
2022/05/19 04:52:34;;;;;;;3.45;2.65;;;15.40;93.80;;;;;;4138972;28;20061;-77
2022/05/19 04:54:39;;;;;;;3.15;2.22;;;15.50;93.40;;;;;;4134829;28;20194;-76
2022/05/19 04:56:41;;;;;;;3.45;2.30;;;15.60;92.40;;;;;;4139059;28;20781;-77
2022/05/19 04:58:43;;;;;;;7.45;2.30;;;15.70;92.30;;;;;;4142233;28;20053;-77
2022/05/19 05:00:48;;;;;;;2.72;2.30;;;15.90;92.30;;;;;;4142826;28;20064;-77
2022/05/19 05:02:49;;;;;;;4.68;2.30;;;15.90;91.10;;;;;;4141666;28;20782;-76
2022/05/19 05:04:51;;;;;;;2.75;1.90;;;16.00;91.50;;;;;;4146400;28;20088;-76
2022/05/19 05:06:53;;;;;;;4.00;1.92;;;16.10;91.60;;;;;;4132413;28;20066;-76
2022/05/19 05:08:55;;;;;;;3.55;2.08;;;16.20;91.20;;;;;;4134224;28;20062;-76
2022/05/19 05:10:57;;;;;;;3.22;2.33;;;16.30;90.50;;;;;;4137229;28;20751;-76
2022/05/19 05:13:04;;;;;;;2.65;2.28;;;16.30;90.50;;;;;;4136161;28;20066;-76
2022/05/19 05:15:07;;;;;;;4.25;2.28;;;16.40;90.80;;;;;;4134072;28;20066;-77
2022/05/19 05:17:09;;;;;;;2.30;2.10;;;16.50;90.70;;;;;;4143980;28;20156;-76
2022/05/19 05:19:11;;;;;;;2.97;2.13;;;16.70;90.50;;;;;;4141683;28;20078;-76
2022/05/19 05:21:13;;;;;;;6.72;2.60;;;16.80;90.40;;;;;;4141573;28;20062;-77
2022/05/19 05:23:15;;;;;;;3.72;2.60;;;16.80;90.70;;;;;;4146240;28;20066;-77
2022/05/19 05:25:16;;;;;;;3.58;2.13;;;16.70;90.70;;;;;;4145844;28;20105;-77
2022/05/19 05:27:18;;;;;;;6.90;2.45;;;16.70;91.40;;;;;;4146817;28;20085;-77
2022/05/19 05:29:20;;;;;;;1.52;1.42;;;16.70;90.80;;;;;;4144540;28;20081;-77
2022/05/19 05:31:22;;;;;;;1.95;1.65;;;16.80;88.80;;;;;;4143212;28;20542;-76
2022/05/19 05:33:24;;;;;;;1.70;1.60;;;16.90;86.00;;;;;;4146246;28;20094;-73
2022/05/19 05:35:26;;;;;;;2.38;1.75;;;16.90;85.20;;;;;;4147150;28;20085;-74
2022/05/19 05:37:27;;;;;;;1.25;1.15;;;17.00;85.80;;;;;;4147156;28;20062;-74
2022/05/19 05:39:29;;;;;;;2.67;1.92;;;17.10;86.00;;;;;;4145957;28;20061;-72
2022/05/19 05:41:35;;;;;;;8.35;1.95;;;17.20;83.70;;;;;;4143968;28;20093;-72
2022/05/19 05:43:39;;;;;;;2.58;1.58;;;17.30;84.10;;;;;;4146268;28;20051;-73
2022/05/19 05:45:41;;;;;;;6.60;1.90;;;17.40;82.40;;;;;;4146612;28;20054;-75
2022/05/19 05:47:42;;;;;;;1.65;1.55;;;17.50;81.70;;;;;;4146833;28;20063;-75
2022/05/19 05:49:46;;;;;;;2.72;1.73;;;17.60;80.50;;;;;;4145542;28;20065;-75
2022/05/19 05:51:48;;;;;;;1.83;1.63;;;17.70;81.60;;;;;;4144911;28;20064;-75
2022/05/19 05:53:49;;;;;;;1.70;1.60;;;17.80;80.70;;;;;;4143711;28;20173;-74
2022/05/19 05:55:51;;;;;;;2.67;1.63;;;17.80;80.70;;;;;;4144888;28;20074;-75
2022/05/19 05:57:53;;;;;;;1.85;1.65;;;17.90;80.20;;;;;;4144102;28;20069;-74
2022/05/19 05:59:56;;;;;;;1.88;1.75;;;18.10;79.60;;;;;;4145115;28;20058;-76
2022/05/19 06:01:58;;;;;;;3.33;1.63;;;18.20;78.80;;;;;;4144469;28;20643;-76
2022/05/19 06:04:01;;;;;;;1.55;1.45;;;18.30;78.80;;;;;;4145402;28;20080;-74
2022/05/19 06:06:04;;;;;;;1.90;1.60;;;18.40;78.60;;;;;;4143965;28;20065;-73
2022/05/19 06:08:06;;;;;;;2.83;1.60;;;18.50;78.00;;;;;;4142513;28;21114;-73
2022/05/19 06:10:10;;;;;;;2.17;1.90;;;18.60;78.00;;;;;;4144072;28;20058;-73
2022/05/19 06:12:11;;;;;;;3.65;1.95;;;18.70;77.60;;;;;;4141540;28;20165;-73
2022/05/19 06:14:13;;;;;;;1.70;1.30;;;18.80;76.60;;;;;;4138828;28;20642;-73
2022/05/19 06:16:15;;;;;;;2.22;1.65;;;18.90;76.80;;;;;;4134035;28;20078;-74
2022/05/19 06:18:17;;;;;;;3.92;1.27;;;19.10;76.40;;;;;;4133998;28;20065;-73
2022/05/19 06:20:19;;;;;;;2.40;1.40;;;19.10;76.00;;;;;;4149950;28;20793;-73
2022/05/19 06:22:22;;;;;;;1.80;1.70;;;19.20;76.00;;;;;;4139625;28;20764;-73
2022/05/19 06:24:24;;;;;;;2.17;1.52;;;19.20;76.10;;;;;;4139966;28;20062;-73
2022/05/19 06:26:26;;;;;;;1.38;1.15;;;19.30;75.40;;;;;;4142803;28;20065;-74
2022/05/19 06:28:29;;;;;;;2.10;1.67;;;19.40;74.90;;;;;;4145423;28;20106;-73
2022/05/19 06:30:31;;;;;;;2.88;1.80;;;19.50;73.80;;;;;;4142052;28;20096;-73
2022/05/19 06:32:34;;;;;;;3.53;1.75;;;19.60;74.10;;;;;;4142503;28;20150;-72
2022/05/19 06:34:38;;;;;;;2.47;1.52;;;19.70;73.40;;;;;;4155813;28;20046;-72
2022/05/19 06:36:39;;;;;;;4.90;1.80;;;19.70;73.30;;;;;;4144063;28;20065;-72
2022/05/19 06:38:41;;;;;;;2.35;1.70;;;19.80;73.50;;;;;;4142489;28;20264;-72
2022/05/19 06:40:43;;;;;;;1.70;1.50;;;19.80;73.90;;;;;;4143986;28;20054;-72
2022/05/19 06:42:46;;;;;;;2.78;1.60;;;19.80;73.30;;;;;;4142681;28;20058;-72
2022/05/19 06:44:48;;;;;;;1.40;1.25;;;19.90;74.10;;;;;;4145266;28;20664;-72
2022/05/19 06:46:49;;;;;;;2.47;1.48;;;19.90;73.60;;;;;;4145287;28;20165;-74
2022/05/19 06:48:52;;;;;;;2.63;1.70;;;20.00;73.50;;;;;;4141773;28;20878;-72
2022/05/19 06:50:53;;;;;;;2.63;1.98;;;20.10;72.70;;;;;;4141538;28;20633;-71
2022/05/19 06:53:15;;;;;;;2.75;1.60;;;20.20;73.50;;;;;;4140890;28;20073;-72
2022/05/19 06:55:19;;;;;;;5.43;2.13;;;20.30;73.20;;;;;;4138678;28;20063;-72
2022/05/19 06:57:22;;;;;;;1.77;1.67;;;20.30;73.60;;;;;;4139256;28;20066;-72
2022/05/19 06:59:24;;;;;;;6.68;1.65;;;20.40;73.90;;;;;;4140308;28;20080;-71
2022/05/19 07:01:26;;;;;;;3.22;1.75;;;20.50;73.10;;;;;;4139505;28;20069;-72
2022/05/19 07:03:27;;;;;;;1.50;1.40;;;20.50;73.50;;;;;;4137791;28;20172;-72
2022/05/19 07:05:32;;;;;;;2.70;1.70;;;20.60;73.30;;;;;;4140438;28;20087;-72
2022/05/19 07:07:34;;;;;;;1.77;1.50;;;20.70;73.10;;;;;;4140047;28;20078;-72
2022/05/19 07:09:37;;;;;;;1.70;1.60;;;20.70;72.50;;;;;;4137768;28;20909;-71
2022/05/19 07:11:39;;;;;;;1.98;1.70;;;20.80;72.80;;;;;;4140266;28;20065;-71
2022/05/19 07:13:42;;;;;;;4.13;1.73;;;20.80;73.00;;;;;;4141172;28;20101;-72
2022/05/19 07:15:43;;;;;;;1.95;1.85;;;21.00;72.00;;;;;;4136062;28;20062;-73
2022/05/19 07:17:46;;;;;;;3.92;2.00;;;21.00;72.10;;;;;;4137193;28;20157;-72
2022/05/19 07:22:17;;;;;;;3.22;1.65;;;21.20;72.70;;;;;;4137082;28;20098;-71
2022/05/19 07:24:24;;;;;;;3.17;1.80;;;21.40;70.70;;;;;;4137952;28;20067;-72
2022/05/19 07:26:26;;;;;;;1.30;1.17;;;21.50;70.70;;;;;;4136589;28;20058;-71
2022/05/19 07:28:28;;;;;;;2.60;1.70;;;21.50;71.10;;;;;;4136413;28;20055;-72
2022/05/19 07:30:30;;;;;;;2.20;1.33;;;21.50;71.00;;;;;;4138168;28;20050;-71
2022/05/19 07:32:32;;;;;;;1.80;1.70;;;21.50;71.30;;;;;;4136449;28;20090;-71
2022/05/19 07:34:36;;;;;;;3.33;1.50;;;21.50;71.20;;;;;;4139118;28;20181;-71
2022/05/19 07:36:39;;;;;;;1.95;1.67;;;21.70;69.90;;;;;;4136782;28;21424;-71
2022/05/19 07:38:40;;;;;;;1.70;1.60;;;21.70;70.50;;;;;;4135456;28;20165;-71
2022/05/19 07:40:43;;;;;;;5.65;1.50;;;21.80;69.40;;;;;;4138513;28;20767;-71
2022/05/19 07:42:45;;;;;;;1.55;1.45;;;21.80;70.40;;;;;;4133971;28;20051;-71
2022/05/19 07:44:47;;;;;;;2.83;1.75;;;21.80;70.70;;;;;;4143802;28;20164;-71
2022/05/19 07:46:49;;;;;;;1.80;1.70;;;21.90;70.10;;;;;;4138463;28;20652;-72
2022/05/19 07:48:55;;;;;;;1.50;1.40;;;22.00;70.70;;;;;;4138910;28;20055;-71
2022/05/19 07:50:57;;;;;;;2.95;1.73;;;22.10;69.90;;;;;;4138294;28;20094;-71
2022/05/19 07:52:58;;;;;;;5.10;1.80;;;22.20;68.50;;;;;;4136208;28;20186;-72
2022/05/19 07:55:00;;;;;;;2.80;1.30;;;22.20;69.40;;;;;;4138581;28;20161;-72
2022/05/19 07:57:03;;;;;;;2.03;1.40;;;22.30;67.60;;;;;;4138418;28;20687;-71
2022/05/19 07:59:05;;;;;;;1.92;1.52;;;22.30;67.90;;;;;;4141004;28;20101;-72
2022/05/19 08:01:07;;;;;;;2.80;1.60;;;22.30;68.40;;;;;;4137588;28;20157;-72
2022/05/19 08:03:09;;;;;;;3.08;2.10;;;22.40;67.70;;;;;;4144576;28;20945;-71
2022/05/19 08:05:11;;;;;;;1.65;1.45;;;22.50;66.80;;;;;;4144640;28;20042;-72
2022/05/19 08:07:13;;;;;;;1.52;1.40;;;22.60;67.00;;;;;;4156168;28;20062;-72
2022/05/19 08:11:35;;;;;;;2.75;1.30;;;22.70;67.80;;;;;;4140859;28;20068;-72
2022/05/19 08:15:57;;;;;;;3.08;1.52;;;22.80;66.30;;;;;;4141260;28;20065;-71
2022/05/19 08:17:58;;;;;;;3.03;1.40;;;22.80;66.70;;;;;;4142927;28;20069;-71
2022/05/19 08:20:00;;;;;;;1.55;1.38;;;22.80;67.00;;;;;;4140608;28;20706;-71
2022/05/19 08:24:06;;;;;;;7.65;1.73;;;23.10;67.30;;;;;;4145011;28;20058;-72
2022/05/19 08:26:08;;;;;;;3.58;1.40;;;23.20;66.40;;;;;;4146356;28;20077;-72
2022/05/19 08:28:14;;;;;;;1.48;1.38;;;23.30;67.10;;;;;;4144545;28;20085;-72
2022/05/19 08:30:15;;;;;;;6.10;1.90;;;23.40;66.80;;;;;;4145275;28;20161;-72
2022/05/19 08:32:17;;;;;;;3.13;1.63;;;23.50;65.70;;;;;;4142904;28;20098;-72
2022/05/19 08:34:19;;;;;;;3.00;1.50;;;23.60;65.10;;;;;;4145562;28;20064;-72
2022/05/19 08:36:21;;;;;;;1.30;1.20;;;23.60;65.60;;;;;;4145078;28;20065;-72
2022/05/19 08:38:23;;;;;;;1.58;1.48;;;23.70;65.50;;;;;;4146953;28;20120;-72
2022/05/19 08:40:25;;;;;;;2.22;1.40;;;23.80;65.50;;;;;;4147985;28;20777;-72
2022/05/19 08:42:30;;;;;;;2.63;2.05;;;23.90;64.30;;;;;;4144820;28;20061;-72
2022/05/19 08:44:41;;;;;;;2.20;1.65;;;23.90;62.20;;;;;;4145206;28;20058;-72
2022/05/19 08:46:47;;;;;;;3.15;1.95;;;23.80;62.10;;;;;;4146581;28;20712;-72
2022/05/19 08:48:55;;;;;;;1.90;1.40;;;23.90;64.60;;;;;;4145790;28;20157;-72
2022/05/19 08:50:59;;;;;;;1.48;1.38;;;24.00;62.30;;;;;;4146791;28;20062;-72
2022/05/19 08:53:02;;;;;;;2.42;1.83;;;24.10;62.40;;;;;;4145500;28;20062;-72
2022/05/19 08:55:05;;;;;;;1.63;1.52;;;24.10;62.40;;;;;;4144013;28;20102;-72
2022/05/19 08:57:12;;;;;;;1.42;1.33;;;24.10;61.90;;;;;;4148043;28;20774;-72
2022/05/19 08:59:41;;;;;;;3.20;1.80;;;24.20;62.30;;;;;;4147202;28;20108;-71
2022/05/19 09:01:52;;;;;;;3.42;1.92;;;24.30;63.80;;;;;;4146067;28;20160;-72
2022/05/19 09:03:58;;;;;;;;;;;24.40;63.10;;;;;;4146520;28;20121;-71
2022/05/19 09:06:14;;;;;;;2.00;1.80;;;24.50;62.10;;;;;;4147542;28;19951;-72
2022/05/19 09:08:30;;;;;;;1.48;1.38;;;24.60;60.70;;;;;;4144721;28;20062;-72
2022/05/19 09:10:59;;;;;;;1.75;1.35;;;24.60;62.10;;;;;;4144813;28;20065;-72
2022/05/19 09:13:16;;;;;;;1.67;1.58;;;24.70;62.70;;;;;;4144849;28;20157;-72
2022/05/19 09:15:18;;;;;;;3.38;1.60;;;24.80;63.40;;;;;;4146581;28;20058;-72
2022/05/19 09:17:26;;;;;;;3.97;1.90;;;24.90;62.30;;;;;;4147827;28;20776;-72
2022/05/19 09:19:42;;;;;;;1.50;1.40;;;25.00;61.30;;;;;;4144968;28;20051;-72
2022/05/19 09:21:48;;;;;;;2.65;1.33;;;25.10;62.00;;;;;;4146808;28;20069;-72
2022/05/19 09:23:49;;;;;;;9.52;1.80;;;25.20;62.50;;;;;;4146999;28;20161;-71
2022/05/19 09:26:18;;;;;;;2.35;1.73;;;25.30;61.10;;;;;;4147633;28;20797;-72
2022/05/19 09:28:20;;;;;;;2.45;1.55;;;25.40;60.90;;;;;;4146545;28;20125;-72
2022/05/19 09:30:37;;;;;;;2.70;1.73;;;25.50;60.80;;;;;;4147807;28;20050;-72
2022/05/19 09:32:45;;;;;;;2.25;1.40;;;25.50;61.80;;;;;;4145335;28;20140;-72
2022/05/19 09:34:50;;;;;;;3.42;1.63;;;25.60;61.20;;;;;;4146558;28;20647;-72
2022/05/19 09:37:14;;;;;;;1.50;1.40;;;25.60;60.20;;;;;;4144070;28;20165;-72
2022/05/19 09:39:18;;;;;;;2.95;1.83;;;25.70;59.30;;;;;;4142849;28;20093;-72
2022/05/19 09:41:33;;;;;;;3.28;1.80;;;25.70;59.50;;;;;;4145093;28;20050;-72
2022/05/19 09:43:37;;;;;;;3.15;1.70;;;25.80;58.90;;;;;;4143132;28;20066;-71
2022/05/19 09:45:43;;;;;;;1.63;1.52;;;25.80;59.50;;;;;;4145973;28;20125;-72
2022/05/19 09:47:50;;;;;;;3.33;1.42;;;25.80;59.60;;;;;;4148026;28;20058;-72
2022/05/19 09:50:01;;;;;;;2.42;1.85;;;25.90;60.90;;;;;;4144468;28;20058;-72
2022/05/19 09:52:05;;;;;;;1.77;1.67;;;26.00;59.60;;;;;;4147485;28;20165;-72
2022/05/19 09:54:12;;;;;;;2.03;1.80;;;26.10;59.20;;;;;;4145353;28;20857;-72
2022/05/19 09:56:18;;;;;;;1.40;1.30;;;26.20;60.00;;;;;;4154195;28;20129;-72
2022/05/19 09:58:21;;;;;;;1.70;1.60;;;26.20;60.70;;;;;;4160489;28;20072;-72
2022/05/19 10:00:36;;;;;;;1.88;1.70;;;26.20;59.80;;;;;;4147983;28;20157;-72
2022/05/19 10:02:44;;;;;;;1.80;1.30;;;26.30;59.50;;;;;;4143866;28;20062;-72
2022/05/19 10:05:37;;;;;;;1.95;1.75;;;26.30;58.90;;;;;;4144803;28;20797;-72
2022/05/19 10:07:44;;;;;;;1.52;1.42;;;26.40;59.90;;;;;;4146583;28;20100;-72
2022/05/19 10:09:47;;;;;;;2.13;1.80;;;26.50;59.90;;;;;;4139110;28;20161;-72
2022/05/19 10:12:00;;;;;;;2.13;1.63;;;26.50;58.90;;;;;;4146193;28;20054;-72
2022/05/19 10:14:08;;;;;;;2.03;1.70;;;26.70;59.50;;;;;;4145310;28;20094;-72
2022/05/19 10:16:24;;;;;;;2.28;2.08;;;26.70;59.00;;;;;;4144089;28;20061;-72
2022/05/19 10:18:55;;;;;;;2.45;1.58;;;26.80;59.70;;;;;;4147435;28;20971;-72
2022/05/19 10:21:26;;;;;;;7.03;1.67;;;26.80;60.50;;;;;;4147499;28;20808;-72
2022/05/19 10:24:00;;;;;;;3.85;2.00;;;26.90;59.60;;;;;;4141180;28;20157;-72
2022/05/19 10:26:38;;;;;;;2.80;1.70;;;27.00;58.80;;;;;;4145229;28;20117;-72
2022/05/19 10:31:25;;;;;;;3.33;1.95;;;27.00;59.90;;;;;;4146148;28;20153;-72
2022/05/19 10:33:54;;;;;;;3.60;2.28;;;27.10;59.30;;;;;;4144608;28;20058;-72
2022/05/19 10:36:20;;;;;;;5.47;2.15;;;27.30;57.90;;;;;;4147294;28;20061;-72
2022/05/19 10:38:42;;;;;;;2.70;2.00;;;27.30;59.00;;;;;;4146063;28;20068;-72
2022/05/19 10:41:22;;;;;;;2.13;1.80;;;27.20;58.80;;;;;;4143148;28;20136;-72
2022/05/19 10:43:54;;;;;;;3.67;2.03;;;27.20;58.90;;;;;;4146773;28;20077;-72
2022/05/19 10:45:58;;;;;;;2.00;1.90;;;27.20;58.60;;;;;;4146930;28;20054;-72
2022/05/19 10:48:38;;;;;;;3.28;1.88;;;27.30;56.80;;;;;;4147126;28;20061;-72
2022/05/19 10:51:13;;;;;;;3.75;1.80;;;27.40;57.20;;;;;;4145235;28;20058;-72
2022/05/19 10:53:36;;;;;;;3.13;1.73;;;27.40;58.40;;;;;;4144087;28;20054;-72
2022/05/19 10:55:53;;;;;;;2.75;2.05;;;27.50;57.10;;;;;;4143993;28;20062;-72
2022/05/19 10:58:02;;;;;;;1.90;1.70;;;27.70;57.50;;;;;;4144144;28;20066;-72
2022/05/19 11:00:15;;;;;;;2.23;2.00;;;27.90;56.60;;;;;;4142090;28;20063;-72
2022/05/19 11:02:36;;;;;;;2.28;1.75;;;27.80;56.60;;;;;;4143657;28;20158;-72
2022/05/19 11:05:05;;;;;;;2.50;2.00;;;27.60;56.50;;;;;;4148858;28;20066;-72
2022/05/19 11:07:41;;;;;;;2.60;2.40;;;27.30;57.00;;;;;;4149779;28;20062;-72
2022/05/19 11:10:04;;;;;;;2.67;2.47;;;26.90;57.60;;;;;;4146809;28;20936;-72
2022/05/19 11:12:25;;;;;;;3.80;2.33;;;26.80;57.80;;;;;;4148967;28;20624;-72